Time;durP1;ratioP1;P1;durP2;ratioP2;P2;SDS_P1;SDS_P2;PMS_P1;PMS_P2;Temp;Humidity;BMP_temperature;BMP_pressure;BME280_temperature;BME280_humidity;BME280_pressure;Samples;Min_cycle;Max_cycle;Signal;HPM_P1;HPM_P2
2022/03/20 00:00:24;;;;;;;35.72;19.23;;;4.00;99.90;;;;;;4981732;28;20044;-82
2022/03/20 00:02:49;;;;;;;29.83;18.42;;;4.00;99.90;;;;;;4969577;28;20068;-82
2022/03/20 00:05:15;;;;;;;29.70;18.63;;;4.10;99.90;;;;;;4982678;28;20441;-82
2022/03/20 00:07:41;;;;;;;34.00;20.05;;;4.10;99.90;;;;;;4986481;28;20042;-81
2022/03/20 00:10:07;;;;;;;30.02;19.38;;;4.00;99.90;;;;;;4969040;28;20104;-82
2022/03/20 00:12:33;;;;;;;31.98;18.90;;;3.90;99.90;;;;;;4952175;28;20071;-83
2022/03/20 00:14:59;;;;;;;33.75;19.38;;;4.00;99.90;;;;;;4931293;28;20045;-82
2022/03/20 00:17:24;;;;;;;27.80;18.40;;;3.80;99.90;;;;;;4998552;28;20517;-82
2022/03/20 00:19:50;;;;;;;27.00;19.45;;;3.70;99.90;;;;;;4969463;28;20433;-82
2022/03/20 00:22:16;;;;;;;29.85;17.90;;;3.70;99.90;;;;;;4986822;28;20136;-82
2022/03/20 00:24:42;;;;;;;29.83;17.77;;;3.90;99.90;;;;;;4964455;28;20034;-82
2022/03/20 00:27:09;;;;;;;32.45;19.98;;;3.80;99.90;;;;;;4992143;28;20037;-83
2022/03/20 00:29:34;;;;;;;26.25;17.48;;;3.80;99.90;;;;;;4971099;28;20036;-81
2022/03/20 00:32:00;;;;;;;28.80;18.70;;;3.70;99.90;;;;;;4968732;28;20026;-82
2022/03/20 00:34:25;;;;;;;29.75;19.05;;;3.70;99.90;;;;;;4972315;28;20091;-82
2022/03/20 00:36:51;;;;;;;26.63;16.40;;;3.60;99.90;;;;;;4989968;28;20056;-82
2022/03/20 00:39:16;;;;;;;28.85;16.67;;;3.70;99.90;;;;;;4969250;28;20485;-82
2022/03/20 00:41:42;;;;;;;26.92;18.45;;;3.70;99.90;;;;;;4988645;28;20040;-82
2022/03/20 00:44:07;;;;;;;34.50;19.08;;;3.60;99.90;;;;;;4980570;28;20030;-82
2022/03/20 00:46:33;;;;;;;29.27;17.38;;;3.50;99.90;;;;;;4965047;28;20501;-82
2022/03/20 00:48:59;;;;;;;31.23;19.40;;;3.40;99.90;;;;;;4985845;28;20524;-82
2022/03/20 00:51:24;;;;;;;31.30;18.75;;;3.50;99.90;;;;;;4983913;28;20560;-82
2022/03/20 00:53:50;;;;;;;31.75;18.55;;;3.50;99.90;;;;;;4968930;28;20029;-82
2022/03/20 00:56:15;;;;;;;27.08;18.27;;;3.50;99.90;;;;;;4969591;28;20370;-83
2022/03/20 00:58:41;;;;;;;27.90;18.38;;;3.40;99.90;;;;;;4988733;28;20072;-82
2022/03/20 01:01:09;;;;;;;28.63;18.98;;;3.30;99.90;;;;;;4967413;28;20023;-83
2022/03/20 01:03:35;;;;;;;31.40;18.90;;;3.30;99.90;;;;;;4984979;28;20112;-82
2022/03/20 01:06:01;;;;;;;28.20;17.30;;;3.40;99.90;;;;;;4969319;28;20038;-82
2022/03/20 01:08:26;;;;;;;32.08;18.27;;;3.40;99.90;;;;;;4982499;28;20041;-83
2022/03/20 01:10:52;;;;;;;31.73;17.83;;;3.40;99.90;;;;;;4984060;28;20053;-82
2022/03/20 01:13:18;;;;;;;27.75;18.50;;;3.30;99.90;;;;;;4970685;28;20052;-83
2022/03/20 01:15:44;;;;;;;25.90;18.35;;;3.20;99.90;;;;;;5002239;28;20033;-83
2022/03/20 01:18:09;;;;;;;30.95;18.02;;;3.30;99.90;;;;;;4977617;28;20084;-82
2022/03/20 01:20:35;;;;;;;27.65;19.08;;;3.20;99.90;;;;;;4973197;28;20083;-82
2022/03/20 01:23:00;;;;;;;30.42;19.40;;;3.00;99.90;;;;;;4991080;28;20096;-82
2022/03/20 01:25:26;;;;;;;30.50;19.85;;;2.90;99.90;;;;;;4982952;28;20194;-82
2022/03/20 01:27:51;;;;;;;29.10;18.92;;;2.90;99.90;;;;;;4985356;28;20063;-82
2022/03/20 01:30:17;;;;;;;30.85;20.42;;;3.00;99.90;;;;;;4972211;28;20037;-83
2022/03/20 01:32:43;;;;;;;32.55;20.75;;;2.90;99.90;;;;;;4974085;28;20099;-82
2022/03/20 01:35:09;;;;;;;32.00;18.92;;;2.80;99.90;;;;;;4975271;28;20580;-82
2022/03/20 01:37:36;;;;;;;32.88;19.05;;;2.80;99.90;;;;;;4972632;28;20038;-81
2022/03/20 01:40:03;;;;;;;35.67;19.85;;;2.80;99.90;;;;;;4980696;28;20037;-82
2022/03/20 01:42:28;;;;;;;31.25;19.15;;;2.90;99.90;;;;;;5003054;28;20029;-82
2022/03/20 01:44:54;;;;;;;33.00;18.77;;;2.90;99.90;;;;;;4969803;28;20053;-82
2022/03/20 01:47:20;;;;;;;27.38;19.23;;;2.90;99.90;;;;;;5008310;28;20061;-82
2022/03/20 01:49:45;;;;;;;34.58;19.20;;;2.80;99.90;;;;;;4971323;28;20501;-82
2022/03/20 01:52:11;;;;;;;32.78;18.92;;;2.90;99.90;;;;;;4983489;28;20112;-82
2022/03/20 01:54:44;;;;;;;31.33;19.38;;;2.90;99.90;;;;;;4975146;28;20029;-82
2022/03/20 01:57:16;;;;;;;31.13;18.08;;;2.90;99.90;;;;;;4983195;28;20030;-82
2022/03/20 01:59:42;;;;;;;28.85;20.00;;;2.90;99.90;;;;;;4964211;28;20137;-82
2022/03/20 02:02:08;;;;;;;28.42;19.33;;;2.80;99.90;;;;;;4998123;28;20037;-82
2022/03/20 02:04:35;;;;;;;29.55;17.90;;;2.70;99.90;;;;;;4974345;28;20030;-82
2022/03/20 02:07:02;;;;;;;29.08;17.80;;;2.80;99.90;;;;;;4984428;28;20030;-82
2022/03/20 02:09:27;;;;;;;35.28;19.85;;;3.00;99.90;;;;;;4974105;28;20040;-83
2022/03/20 02:11:54;;;;;;;31.27;17.80;;;3.00;99.90;;;;;;4978905;28;20394;-82
2022/03/20 02:14:19;;;;;;;28.27;18.55;;;2.90;99.90;;;;;;4969206;28;20037;-82
2022/03/20 02:16:45;;;;;;;38.53;19.77;;;2.80;99.90;;;;;;4980331;28;20025;-82
2022/03/20 02:19:13;;;;;;;29.17;18.75;;;3.00;99.90;;;;;;4983662;28;20033;-82
2022/03/20 02:21:46;;;;;;;33.83;19.17;;;2.90;99.90;;;;;;4996305;28;20439;-82
2022/03/20 02:24:40;;;;;;;29.67;20.25;;;3.10;99.90;;;;;;4990350;28;20026;-82
2022/03/20 02:27:23;;;;;;;30.02;18.50;;;3.00;99.90;;;;;;4991299;28;20128;-82
2022/03/20 02:30:13;;;;;;;33.42;19.40;;;3.10;99.90;;;;;;4966805;28;20038;-82
2022/03/20 02:32:39;;;;;;;33.13;19.00;;;3.10;99.90;;;;;;4971661;28;20042;-82
2022/03/20 02:35:05;;;;;;;28.23;18.65;;;3.20;99.90;;;;;;4963606;28;20123;-82
2022/03/20 02:37:32;;;;;;;25.90;19.20;;;3.30;99.90;;;;;;4976959;28;20497;-82
2022/03/20 02:40:01;;;;;;;26.60;17.05;;;3.40;99.90;;;;;;4970309;28;20040;-82
2022/03/20 02:42:27;;;;;;;28.25;17.92;;;3.40;99.90;;;;;;4988628;28;20528;-82
2022/03/20 02:45:03;;;;;;;29.23;18.58;;;3.50;99.90;;;;;;4989914;28;20034;-82
2022/03/20 02:47:39;;;;;;;30.85;18.13;;;3.40;99.90;;;;;;4978705;28;20498;-82
2022/03/20 02:50:09;;;;;;;;;;;3.40;99.90;;;;;;4990505;28;20596;-82
2022/03/20 02:52:52;;;;;;;28.10;17.67;;;3.40;99.90;;;;;;5003239;28;19909;-82
2022/03/20 02:55:19;;;;;;;29.88;18.77;;;3.50;99.90;;;;;;4985719;28;20037;-82
2022/03/20 02:57:45;;;;;;;27.70;18.77;;;3.50;99.90;;;;;;4997967;28;20405;-82
2022/03/20 03:00:11;;;;;;;32.78;18.38;;;3.60;99.90;;;;;;4974073;28;20030;-82
2022/03/20 03:02:45;;;;;;;30.20;19.35;;;3.60;99.90;;;;;;4981403;28;20034;-82
2022/03/20 03:05:15;;;;;;;29.52;19.42;;;3.60;99.90;;;;;;4974656;28;20367;-83
2022/03/20 03:13:10;;;;;;;28.52;16.40;;;3.60;99.90;;;;;;4984844;28;20084;-82
2022/03/20 03:15:36;;;;;;;30.88;18.73;;;3.60;99.90;;;;;;4972644;28;20037;-83
2022/03/20 03:18:01;;;;;;;29.38;16.80;;;3.70;99.90;;;;;;4967602;28;20057;-83
2022/03/20 03:20:27;;;;;;;34.05;20.17;;;3.70;99.90;;;;;;4993845;28;20167;-83
2022/03/20 03:22:53;;;;;;;26.55;13.95;;;3.70;99.90;;;;;;4973328;28;20048;-82
2022/03/20 03:25:18;;;;;;;31.45;17.83;;;3.60;99.90;;;;;;4967041;28;20072;-83
2022/03/20 03:27:44;;;;;;;28.75;18.83;;;3.60;99.90;;;;;;4972038;28;20034;-82
2022/03/20 03:30:12;;;;;;;31.05;17.42;;;3.60;99.90;;;;;;4983622;28;20035;-82
2022/03/20 03:32:40;;;;;;;33.13;19.13;;;3.60;99.90;;;;;;4973051;28;20093;-82
2022/03/20 03:37:51;;;;;;;30.48;18.60;;;3.70;99.90;;;;;;4983463;28;20123;-82
2022/03/20 03:40:16;;;;;;;32.33;19.15;;;3.60;99.90;;;;;;4982492;28;20489;-82
2022/03/20 03:42:42;;;;;;;31.55;18.45;;;3.70;99.90;;;;;;4980399;28;20128;-83
2022/03/20 03:45:08;;;;;;;29.75;17.95;;;3.70;99.90;;;;;;4980768;28;20080;-83
2022/03/20 03:47:34;;;;;;;26.95;18.20;;;3.60;99.90;;;;;;4983659;28;20397;-83
2022/03/20 03:49:59;;;;;;;29.35;17.63;;;3.70;99.90;;;;;;4967630;28;20037;-82
2022/03/20 03:52:25;;;;;;;29.02;18.17;;;3.70;99.90;;;;;;4971389;28;20036;-82
2022/03/20 03:54:50;;;;;;;27.92;16.88;;;3.70;99.90;;;;;;4983398;28;20116;-82
2022/03/20 03:57:19;;;;;;;28.38;17.58;;;3.70;99.90;;;;;;4969938;28;20038;-82
2022/03/20 03:59:45;;;;;;;29.25;18.08;;;3.70;99.90;;;;;;4990820;28;20029;-83
2022/03/20 04:02:11;;;;;;;28.40;16.90;;;3.70;99.90;;;;;;4970467;28;20128;-82
2022/03/20 04:04:38;;;;;;;30.95;17.95;;;3.70;99.90;;;;;;4983765;28;20124;-82
2022/03/20 04:07:04;;;;;;;31.05;18.55;;;3.70;99.90;;;;;;4985223;28;20040;-82
2022/03/20 04:09:29;;;;;;;29.60;17.63;;;3.70;99.90;;;;;;4988243;28;20030;-82
2022/03/20 04:11:55;;;;;;;27.33;17.92;;;3.70;99.90;;;;;;4980341;28;20088;-82
2022/03/20 04:14:21;;;;;;;26.88;15.88;;;3.70;99.90;;;;;;4980691;28;20444;-82
2022/03/20 04:16:46;;;;;;;26.67;18.10;;;3.70;99.90;;;;;;4981653;28;20386;-82
2022/03/20 04:19:12;;;;;;;30.77;19.30;;;3.70;99.90;;;;;;4986718;28;20026;-82
2022/03/20 04:21:38;;;;;;;26.42;18.58;;;3.70;99.90;;;;;;4972508;28;20030;-82
2022/03/20 04:24:04;;;;;;;29.45;17.90;;;3.70;99.90;;;;;;4974996;28;20038;-82
2022/03/20 04:26:32;;;;;;;29.80;18.02;;;3.80;99.90;;;;;;4971558;28;20136;-82
2022/03/20 04:28:58;;;;;;;29.10;17.27;;;3.70;99.90;;;;;;4986829;28;20030;-82
2022/03/20 04:31:23;;;;;;;27.15;16.65;;;3.80;99.90;;;;;;4981695;28;20493;-82
2022/03/20 04:33:50;;;;;;;30.88;18.58;;;3.80;99.90;;;;;;4993063;28;20084;-82
2022/03/20 04:36:16;;;;;;;27.75;15.90;;;3.80;99.90;;;;;;4982222;28;20030;-83
2022/03/20 04:38:43;;;;;;;29.98;18.23;;;3.70;99.90;;;;;;4983966;28;20033;-82
2022/03/20 04:41:08;;;;;;;29.70;18.00;;;3.70;99.90;;;;;;4976958;28;20029;-82
2022/03/20 04:43:34;;;;;;;30.48;18.42;;;3.70;99.90;;;;;;4967297;28;20052;-82
2022/03/20 04:46:00;;;;;;;26.58;16.80;;;3.70;99.90;;;;;;4996949;28;20091;-82
2022/03/20 04:59:22;;;;;;;26.85;17.85;;;3.70;99.90;;;;;;4988332;28;20028;-82
2022/03/20 05:01:48;;;;;;;29.35;16.55;;;3.70;99.90;;;;;;4979797;28;20030;-82
2022/03/20 05:04:14;;;;;;;30.85;17.40;;;3.70;99.90;;;;;;4985680;28;20389;-82
2022/03/20 05:06:40;;;;;;;23.52;16.42;;;3.60;99.90;;;;;;4983210;28;20490;-82
2022/03/20 05:14:33;;;;;;;30.23;17.48;;;3.30;99.90;;;;;;4993840;28;20052;-82
2022/03/20 05:17:00;;;;;;;28.65;17.33;;;3.30;99.90;;;;;;4983204;28;20041;-81
2022/03/20 05:19:26;;;;;;;32.35;17.40;;;3.20;99.90;;;;;;4965250;28;20131;-82
2022/03/20 05:21:52;;;;;;;27.83;18.85;;;3.10;99.90;;;;;;4975063;28;20045;-83
2022/03/20 05:24:17;;;;;;;27.63;17.10;;;3.00;99.90;;;;;;4971610;28;20153;-82
2022/03/20 05:26:43;;;;;;;32.30;15.82;;;2.90;99.90;;;;;;4966850;28;20030;-82
2022/03/20 05:29:09;;;;;;;29.95;17.17;;;2.80;99.90;;;;;;4968519;28;20037;-82
2022/03/20 05:31:35;;;;;;;28.80;17.45;;;2.90;99.90;;;;;;4973133;28;20038;-82
2022/03/20 05:34:01;;;;;;;30.63;16.92;;;2.80;99.90;;;;;;4983498;28;20029;-82
2022/03/20 05:36:29;;;;;;;30.73;17.92;;;2.70;99.90;;;;;;5007992;28;20036;-82
2022/03/20 05:38:57;;;;;;;30.38;17.08;;;2.60;99.90;;;;;;4970045;28;20022;-82
2022/03/20 05:44:11;;;;;;;28.73;17.35;;;2.40;99.90;;;;;;4987896;28;20153;-82
2022/03/20 05:46:40;;;;;;;28.52;17.48;;;2.40;99.90;;;;;;4985616;28;20401;-83
2022/03/20 05:49:06;;;;;;;25.90;16.08;;;2.40;99.90;;;;;;4968899;28;20040;-82
2022/03/20 05:51:32;;;;;;;31.17;17.52;;;2.30;99.90;;;;;;4972389;28;20105;-83
2022/03/20 05:53:58;;;;;;;28.75;16.33;;;2.30;99.90;;;;;;4981457;28;20099;-83
2022/03/20 05:59:08;;;;;;;28.83;16.42;;;2.10;99.90;;;;;;5002407;28;20033;-82
2022/03/20 06:01:34;;;;;;;25.95;15.13;;;2.10;99.90;;;;;;4969237;28;20470;-84
2022/03/20 06:04:00;;;;;;;25.60;16.67;;;2.10;99.90;;;;;;4971985;28;20090;-84
2022/03/20 06:06:26;;;;;;;24.45;14.75;;;2.10;99.90;;;;;;4985922;28;20034;-84
2022/03/20 06:08:52;;;;;;;30.58;16.85;;;2.10;99.90;;;;;;4973271;28;20480;-83
2022/03/20 06:11:17;;;;;;;30.40;16.10;;;2.10;99.90;;;;;;4977753;28;20121;-84
2022/03/20 06:13:45;;;;;;;27.50;16.92;;;2.00;99.90;;;;;;4993081;28;20038;-84
2022/03/20 06:16:12;;;;;;;30.02;16.80;;;2.10;99.90;;;;;;4990526;28;20038;-84
2022/03/20 06:18:42;;;;;;;29.02;17.02;;;2.10;99.90;;;;;;4974651;28;20497;-85
2022/03/20 06:21:09;;;;;;;24.40;15.68;;;2.10;99.90;;;;;;4989374;28;20394;-82
2022/03/20 06:23:35;;;;;;;26.90;16.65;;;2.20;99.90;;;;;;4996607;28;20033;-82
2022/03/20 06:26:00;;;;;;;28.50;17.80;;;2.10;99.90;;;;;;4967314;28;20045;-82
2022/03/20 06:28:26;;;;;;;30.15;16.42;;;2.10;99.90;;;;;;4982975;28;20029;-82
2022/03/20 06:30:52;;;;;;;26.50;17.05;;;2.30;99.90;;;;;;4965051;28;20497;-82
2022/03/20 06:33:17;;;;;;;24.00;14.20;;;2.30;99.90;;;;;;4975941;28;20040;-82
2022/03/20 06:35:43;;;;;;;30.15;15.18;;;2.40;99.90;;;;;;4980614;28;20033;-83
2022/03/20 06:38:08;;;;;;;31.35;16.80;;;2.50;99.90;;;;;;4977606;28;20443;-82
2022/03/20 06:40:34;;;;;;;26.15;15.10;;;2.60;99.90;;;;;;4973835;28;20045;-82
2022/03/20 06:43:00;;;;;;;24.95;16.00;;;2.50;99.90;;;;;;4971265;28;20057;-82
2022/03/20 06:45:26;;;;;;;28.33;16.73;;;2.50;99.90;;;;;;5000555;28;20069;-82
2022/03/20 06:47:51;;;;;;;25.23;15.73;;;2.60;99.90;;;;;;4971838;28;20031;-82
2022/03/20 06:50:17;;;;;;;24.83;15.88;;;2.50;99.90;;;;;;4981012;28;20032;-83
2022/03/20 06:52:43;;;;;;;25.88;15.90;;;2.70;99.90;;;;;;4969354;28;20052;-82
2022/03/20 06:55:12;;;;;;;26.73;16.25;;;2.70;99.90;;;;;;4964816;28;20037;-82
2022/03/20 06:57:42;;;;;;;26.35;16.42;;;2.60;99.90;;;;;;4967894;28;20030;-82
2022/03/20 07:00:09;;;;;;;26.65;15.80;;;2.70;99.90;;;;;;4972159;28;20038;-82
2022/03/20 07:02:34;;;;;;;27.73;14.30;;;2.80;99.90;;;;;;4971656;28;20037;-82
2022/03/20 07:05:00;;;;;;;24.95;15.35;;;2.90;99.90;;;;;;4982556;28;20026;-82
2022/03/20 07:07:28;;;;;;;30.50;16.25;;;3.00;99.90;;;;;;4999014;28;20112;-82
2022/03/20 07:09:54;;;;;;;30.13;16.75;;;2.90;99.90;;;;;;4989025;28;20477;-82
2022/03/20 07:12:19;;;;;;;30.77;17.05;;;2.90;99.90;;;;;;4989747;28;20030;-82
2022/03/20 07:14:45;;;;;;;27.40;15.40;;;3.00;99.90;;;;;;4991762;28;20056;-82
2022/03/20 07:17:16;;;;;;;27.23;15.93;;;3.10;99.90;;;;;;4982755;28;20038;-82
2022/03/20 07:19:43;;;;;;;27.27;15.00;;;3.00;99.90;;;;;;4967851;28;20026;-82
2022/03/20 07:22:09;;;;;;;26.55;14.95;;;3.10;99.90;;;;;;4974835;28;20113;-82
2022/03/20 07:24:35;;;;;;;28.15;17.00;;;3.20;99.90;;;;;;4981278;28;20030;-82
2022/03/20 07:29:45;;;;;;;29.85;15.57;;;3.30;99.90;;;;;;4986238;28;20060;-81
2022/03/20 07:32:11;;;;;;;27.13;15.73;;;3.30;99.90;;;;;;4971770;28;20030;-82
2022/03/20 07:34:38;;;;;;;27.27;16.42;;;3.40;99.20;;;;;;4991483;28;20030;-83
2022/03/20 07:37:04;;;;;;;24.67;15.45;;;3.50;99.90;;;;;;4990205;28;20501;-83
2022/03/20 07:39:30;;;;;;;28.75;16.70;;;3.50;99.50;;;;;;4973005;28;20022;-83
2022/03/20 07:41:56;;;;;;;28.10;16.75;;;3.50;99.60;;;;;;4973066;28;20147;-82
2022/03/20 07:44:23;;;;;;;29.77;16.52;;;3.50;99.50;;;;;;4985483;28;20026;-82
2022/03/20 07:46:49;;;;;;;27.30;17.92;;;3.70;99.10;;;;;;4982908;28;20108;-83
2022/03/20 07:49:15;;;;;;;26.42;15.52;;;3.70;99.20;;;;;;4972293;28;20038;-82
2022/03/20 07:51:40;;;;;;;28.75;17.40;;;3.80;99.40;;;;;;4986108;28;20392;-82
2022/03/20 07:54:06;;;;;;;28.95;17.17;;;4.00;99.10;;;;;;4984154;28;20029;-82
2022/03/20 07:56:35;;;;;;;30.60;16.10;;;4.00;98.90;;;;;;4980999;28;20041;-82
2022/03/20 07:59:02;;;;;;;28.95;17.17;;;4.00;98.60;;;;;;5001698;28;20833;-83
2022/03/20 08:01:28;;;;;;;26.48;16.52;;;4.10;98.40;;;;;;4983077;28;20037;-82
2022/03/20 08:03:55;;;;;;;30.92;16.80;;;4.30;98.70;;;;;;4970390;28;20486;-82
2022/03/20 08:06:21;;;;;;;29.23;17.58;;;4.30;98.60;;;;;;4968321;28;20115;-82
2022/03/20 08:08:46;;;;;;;26.95;16.80;;;4.50;98.10;;;;;;4963405;28;20448;-82
2022/03/20 08:11:12;;;;;;;26.63;17.45;;;4.60;97.60;;;;;;4969733;28;20168;-82
2022/03/20 08:13:37;;;;;;;29.42;16.60;;;4.70;97.10;;;;;;4978554;28;20096;-82
2022/03/20 08:16:04;;;;;;;33.45;19.98;;;4.80;97.40;;;;;;4973949;28;20037;-82
2022/03/20 08:18:33;;;;;;;27.40;17.20;;;5.10;97.10;;;;;;4977148;28;20044;-82
2022/03/20 08:20:59;;;;;;;32.30;19.67;;;5.30;96.70;;;;;;4966800;28;20022;-82
2022/03/20 08:23:24;;;;;;;29.45;17.05;;;5.30;97.40;;;;;;4987076;28;20040;-82
2022/03/20 08:25:50;;;;;;;28.17;17.27;;;5.20;97.50;;;;;;4963470;28;20044;-82
2022/03/20 08:28:18;;;;;;;30.65;16.75;;;5.40;97.60;;;;;;4974125;28;20046;-83
2022/03/20 08:30:45;;;;;;;26.85;17.50;;;5.40;97.60;;;;;;5001034;28;20104;-81
2022/03/20 08:33:10;;;;;;;33.55;19.17;;;5.60;95.40;;;;;;4984973;28;20033;-81
2022/03/20 08:35:36;;;;;;;32.28;18.08;;;5.70;97.50;;;;;;4968782;28;20040;-81
2022/03/20 08:38:03;;;;;;;27.67;19.38;;;5.70;97.60;;;;;;4978312;28;20041;-82
2022/03/20 08:40:29;;;;;;;26.90;16.42;;;5.80;96.30;;;;;;4972547;28;20030;-82
2022/03/20 08:42:58;;;;;;;26.55;16.20;;;6.10;95.00;;;;;;4964710;28;20524;-81
2022/03/20 08:45:24;;;;;;;27.75;16.75;;;6.40;94.20;;;;;;4965735;28;20099;-81
2022/03/20 08:47:50;;;;;;;27.23;18.15;;;6.40;94.30;;;;;;4966653;28;20033;-81
2022/03/20 08:50:16;;;;;;;31.95;18.70;;;6.30;96.00;;;;;;4965900;28;20030;-81
2022/03/20 08:52:42;;;;;;;32.50;18.77;;;6.20;95.70;;;;;;4977257;28;20038;-83
2022/03/20 08:55:11;;;;;;;31.52;18.55;;;6.20;96.40;;;;;;4971917;28;20034;-82
2022/03/20 08:57:39;;;;;;;30.67;17.90;;;6.30;95.90;;;;;;4973333;28;20056;-82
2022/03/20 09:00:08;;;;;;;28.92;17.08;;;6.20;95.70;;;;;;4969506;28;20052;-81
2022/03/20 09:02:33;;;;;;;32.78;18.98;;;6.40;94.20;;;;;;4965763;28;20405;-81
2022/03/20 09:04:59;;;;;;;34.22;18.60;;;6.40;96.40;;;;;;4978406;28;20038;-81
2022/03/20 09:07:24;;;;;;;32.72;18.50;;;6.50;95.10;;;;;;4979801;28;20397;-82
2022/03/20 09:09:50;;;;;;;28.42;17.75;;;6.70;95.60;;;;;;4978796;28;20042;-81
2022/03/20 09:12:15;;;;;;;29.55;18.45;;;6.80;95.00;;;;;;4981782;28;20044;-81
2022/03/20 09:14:41;;;;;;;31.83;18.27;;;6.90;96.60;;;;;;4987749;28;20105;-81
2022/03/20 09:19:54;;;;;;;33.40;17.98;;;7.10;96.30;;;;;;4991214;28;20247;-82
2022/03/20 09:22:20;;;;;;;30.13;17.60;;;7.20;96.80;;;;;;4979192;28;20477;-84
2022/03/20 09:24:46;;;;;;;32.00;17.58;;;7.30;97.00;;;;;;4988789;28;20235;-80
2022/03/20 09:27:11;;;;;;;33.55;17.05;;;7.60;94.00;;;;;;4966604;28;20034;-82
2022/03/20 09:29:37;;;;;;;30.45;16.40;;;7.80;92.20;;;;;;4966584;28;20044;-82
2022/03/20 09:32:02;;;;;;;34.40;20.13;;;7.90;90.50;;;;;;4991286;28;20017;-82
2022/03/20 09:34:32;;;;;;;35.03;18.00;;;7.90;96.20;;;;;;4978116;28;20119;-83
2022/03/20 09:36:58;;;;;;;30.92;18.35;;;7.90;95.60;;;;;;4990580;28;20057;-82
2022/03/20 09:39:25;;;;;;;28.67;17.98;;;8.00;94.50;;;;;;4971693;28;20112;-83
2022/03/20 09:41:50;;;;;;;31.83;19.23;;;8.20;94.10;;;;;;4985243;28;20543;-82
2022/03/20 09:44:17;;;;;;;33.00;19.33;;;8.40;96.70;;;;;;4966263;28;20104;-82
2022/03/20 09:46:43;;;;;;;30.67;19.38;;;8.50;96.60;;;;;;4992259;28;20491;-82
2022/03/20 09:49:09;;;;;;;33.58;21.27;;;8.60;96.40;;;;;;4975637;28;20022;-82
2022/03/20 09:51:35;;;;;;;34.22;20.20;;;8.80;96.00;;;;;;4980697;28;20041;-83
2022/03/20 09:54:00;;;;;;;33.83;18.67;;;8.90;95.90;;;;;;4969099;28;20030;-82
2022/03/20 09:56:27;;;;;;;28.27;19.52;;;9.00;91.70;;;;;;4973036;28;20478;-82
2022/03/20 09:58:52;;;;;;;37.85;20.60;;;9.10;92.20;;;;;;4981126;28;20056;-83
2022/03/20 10:01:18;;;;;;;31.75;18.70;;;9.40;94.00;;;;;;4999309;28;20033;-82
2022/03/20 10:03:43;;;;;;;27.33;18.35;;;9.50;91.90;;;;;;4983028;28;20105;-83
2022/03/20 10:06:15;;;;;;;36.55;21.92;;;9.70;94.60;;;;;;4982630;28;20483;-82
2022/03/20 10:08:55;;;;;;;31.67;19.08;;;9.80;95.00;;;;;;4970412;28;20048;-83
2022/03/20 10:11:21;;;;;;;32.28;20.48;;;10.10;94.60;;;;;;5013469;28;20080;-83
2022/03/20 10:14:18;;;;;;;36.60;23.40;;;10.30;94.20;;;;;;4976645;28;20057;-84
2022/03/20 10:16:55;;;;;;;34.67;20.38;;;10.50;92.80;;;;;;4978903;28;20033;-83
2022/03/20 10:19:24;;;;;;;36.00;21.27;;;10.50;88.00;;;;;;4972967;28;20040;-83
2022/03/20 10:21:54;;;;;;;28.98;18.98;;;10.70;92.40;;;;;;5000699;28;20029;-82
2022/03/20 10:24:21;;;;;;;35.22;21.27;;;10.80;86.70;;;;;;4975232;28;20041;-82
2022/03/20 10:27:11;;;;;;;31.33;20.83;;;10.80;90.70;;;;;;4976273;28;20045;-82
2022/03/20 10:29:47;;;;;;;32.92;21.42;;;11.00;93.40;;;;;;5001292;28;20045;-83
2022/03/20 10:32:12;;;;;;;;;;;11.20;94.00;;;;;;4975184;28;20030;-82
2022/03/20 10:34:54;;;;;;;36.77;23.33;;;11.40;92.90;;;;;;4992281;28;19909;-84
2022/03/20 10:37:21;;;;;;;30.42;17.63;;;11.50;92.50;;;;;;5002393;28;20129;-83
2022/03/20 10:39:47;;;;;;;31.88;20.52;;;11.60;82.00;;;;;;4967614;28;20026;-83
2022/03/20 10:42:14;;;;;;;34.08;21.40;;;11.70;87.20;;;;;;4974560;28;20026;-83
2022/03/20 10:44:40;;;;;;;35.65;22.27;;;11.80;91.90;;;;;;4970049;28;20029;-84
2022/03/20 10:47:12;;;;;;;32.63;22.35;;;12.00;92.10;;;;;;4966942;28;20532;-84
2022/03/20 10:49:38;;;;;;;35.55;21.00;;;12.00;92.90;;;;;;4975231;28;20033;-83
2022/03/20 10:52:11;;;;;;;33.72;22.33;;;12.10;80.00;;;;;;4973387;28;20407;-84
2022/03/20 10:54:44;;;;;;;34.42;21.80;;;12.20;92.00;;;;;;4981706;28;20026;-84
2022/03/20 10:57:16;;;;;;;38.10;21.55;;;12.40;88.70;;;;;;4981291;28;20528;-83
2022/03/20 10:59:42;;;;;;;33.33;19.58;;;12.50;91.60;;;;;;4987610;28;20509;-84
2022/03/20 11:02:24;;;;;;;37.00;22.50;;;12.60;90.00;;;;;;4999044;28;20331;-85
2022/03/20 11:04:51;;;;;;;33.45;21.77;;;12.80;93.20;;;;;;4970947;28;20413;-83
2022/03/20 11:07:20;;;;;;;34.97;22.13;;;12.90;90.70;;;;;;4980477;28;20401;-83
2022/03/20 11:09:49;;;;;;;35.25;22.10;;;13.00;90.30;;;;;;4969290;28;20038;-83
2022/03/20 11:12:21;;;;;;;36.80;22.73;;;13.20;91.00;;;;;;4987727;28;22895;-83
2022/03/20 11:14:47;;;;;;;32.83;22.13;;;13.20;92.00;;;;;;4988206;28;20509;-82
2022/03/20 11:17:17;;;;;;;29.15;21.30;;;13.20;90.20;;;;;;4963573;28;20030;-82
2022/03/20 11:19:52;;;;;;;38.67;24.42;;;13.20;83.00;;;;;;4981687;28;20038;-83
2022/03/20 11:22:20;;;;;;;35.60;22.92;;;13.40;74.10;;;;;;4983557;28;21126;-82
2022/03/20 11:24:46;;;;;;;31.48;20.05;;;13.40;69.70;;;;;;4978086;28;20041;-81
2022/03/20 11:27:12;;;;;;;38.83;22.00;;;13.70;68.00;;;;;;4981764;28;20017;-82
2022/03/20 11:29:48;;;;;;;35.92;22.98;;;14.00;68.00;;;;;;4979021;28;20493;-82
2022/03/20 11:32:14;;;;;;;32.25;19.38;;;14.30;73.30;;;;;;4983508;28;20038;-81
2022/03/20 11:34:40;;;;;;;35.15;23.02;;;14.10;64.40;;;;;;4969225;28;20030;-80
2022/03/20 11:37:07;;;;;;;34.92;22.80;;;14.40;66.70;;;;;;4978043;28;20493;-80
2022/03/20 11:39:39;;;;;;;37.20;23.98;;;14.50;63.40;;;;;;4964029;28;20504;-80
2022/03/20 11:42:26;;;;;;;33.45;21.27;;;14.60;66.20;;;;;;4974200;28;20040;-81
2022/03/20 11:44:53;;;;;;;33.28;20.77;;;14.70;61.50;;;;;;4986749;28;20048;-80
2022/03/20 11:47:19;;;;;;;38.65;24.67;;;14.90;60.20;;;;;;4966283;28;20489;-80
2022/03/20 11:50:14;;;;;;;34.20;22.73;;;15.00;63.60;;;;;;4980524;28;20029;-80
2022/03/20 11:52:44;;;;;;;34.08;21.05;;;15.20;60.50;;;;;;5016757;28;20025;-79
2022/03/20 11:55:24;;;;;;;26.88;16.60;;;15.20;58.20;;;;;;4968899;28;20485;-81
2022/03/20 11:57:49;;;;;;;37.13;22.23;;;14.90;57.60;;;;;;4997057;28;20115;-79
2022/03/20 12:00:18;;;;;;;35.38;22.08;;;14.80;57.40;;;;;;4983748;28;20059;-80
2022/03/20 12:02:51;;;;;;;35.42;23.10;;;14.90;58.50;;;;;;4978696;28;20038;-81
2022/03/20 12:05:41;;;;;;;35.78;24.52;;;15.10;57.50;;;;;;4985889;28;20092;-80
2022/03/20 12:08:25;;;;;;;37.00;23.08;;;15.30;63.40;;;;;;5012827;28;20091;-80
2022/03/20 12:11:11;;;;;;;36.60;24.20;;;15.50;57.00;;;;;;5005974;28;20087;-81
2022/03/20 12:14:01;;;;;;;42.20;24.35;;;15.60;64.50;;;;;;5009936;28;20422;-80
2022/03/20 12:16:42;;;;;;;35.75;22.02;;;15.80;58.40;;;;;;4982782;28;20177;-79
2022/03/20 12:19:14;;;;;;;35.65;21.00;;;15.80;60.40;;;;;;5015240;28;20040;-80
2022/03/20 12:21:59;;;;;;;35.50;22.70;;;15.60;56.90;;;;;;4968186;28;20057;-81
2022/03/20 12:24:52;;;;;;;37.88;23.95;;;15.70;59.20;;;;;;4280207;28;10000605;-80
2022/03/20 12:27:23;;;;;;;36.05;21.77;;;15.70;57.80;;;;;;4997162;28;20049;-80
2022/03/20 12:30:10;;;;;;;36.95;22.38;;;15.90;60.40;;;;;;5010441;28;20054;-80
2022/03/20 12:32:48;;;;;;;32.15;22.15;;;15.70;56.80;;;;;;4992628;28;20087;-81
2022/03/20 12:35:18;;;;;;;30.50;19.08;;;15.90;57.30;;;;;;4995610;28;20038;-80
2022/03/20 12:37:44;;;;;;;36.67;23.33;;;15.70;57.00;;;;;;4979978;28;20113;-80
2022/03/20 12:40:23;;;;;;;38.65;22.90;;;15.40;57.40;;;;;;4973769;28;20145;-80
2022/03/20 12:43:08;;;;;;;34.55;21.23;;;15.50;59.80;;;;;;4995198;28;20037;-80
2022/03/20 12:45:35;;;;;;;32.30;21.20;;;15.50;57.60;;;;;;4993559;28;20056;-80
2022/03/20 12:48:14;;;;;;;36.88;22.13;;;15.30;57.60;;;;;;4983173;28;21156;-80
2022/03/20 12:50:41;;;;;;;35.28;23.23;;;15.10;58.80;;;;;;4977411;28;20040;-80
2022/03/20 12:53:09;;;;;;;33.95;22.17;;;15.10;61.20;;;;;;4970791;28;20040;-81
2022/03/20 12:55:37;;;;;;;32.65;17.58;;;15.20;59.00;;;;;;4982120;28;20045;-80
2022/03/20 12:58:02;;;;;;;39.08;23.70;;;15.10;58.40;;;;;;4966241;28;20030;-81
2022/03/20 13:00:30;;;;;;;35.47;22.30;;;14.80;59.40;;;;;;4971025;28;20041;-80
2022/03/20 13:03:03;;;;;;;29.83;18.42;;;14.60;59.40;;;;;;4980719;28;20041;-80
2022/03/20 13:05:38;;;;;;;36.15;23.05;;;14.60;60.20;;;;;;5005021;28;20489;-79
2022/03/20 13:08:06;;;;;;;32.07;21.80;;;14.40;61.80;;;;;;4998249;28;20037;-80
2022/03/20 13:10:37;;;;;;;31.80;20.73;;;14.70;63.40;;;;;;4976499;28;20453;-81
2022/03/20 13:13:03;;;;;;;37.60;20.95;;;14.80;63.20;;;;;;4970418;28;20025;-81
2022/03/20 13:15:30;;;;;;;35.10;22.45;;;14.70;62.20;;;;;;4969289;28;20520;-80